sensor_id;sensor_type;location;lat;lon;timestamp;temperature;humidity
42965;DHT22;28604;51.204;22.552;2023-02-08T00:01:41;0.90;90.30
42965;DHT22;28604;51.204;22.552;2023-02-08T00:04:07;0.90;90.40
42965;DHT22;28604;51.204;22.552;2023-02-08T00:06:34;0.90;90.30
42965;DHT22;28604;51.204;22.552;2023-02-08T00:08:59;0.90;90.30
42965;DHT22;28604;51.204;22.552;2023-02-08T00:11:26;0.90;90.30
42965;DHT22;28604;51.204;22.552;2023-02-08T00:13:52;0.90;90.30
42965;DHT22;28604;51.204;22.552;2023-02-08T00:16:18;0.90;90.30
42965;DHT22;28604;51.204;22.552;2023-02-08T00:18:44;0.90;90.30
42965;DHT22;28604;51.204;22.552;2023-02-08T00:21:12;0.80;90.30
42965;DHT22;28604;51.204;22.552;2023-02-08T00:23:38;0.80;90.30
42965;DHT22;28604;51.204;22.552;2023-02-08T00:26:04;0.80;90.30
42965;DHT22;28604;51.204;22.552;2023-02-08T00:28:30;0.90;90.30
42965;DHT22;28604;51.204;22.552;2023-02-08T00:30:57;0.90;90.30
42965;DHT22;28604;51.204;22.552;2023-02-08T00:33:23;0.80;90.30
42965;DHT22;28604;51.204;22.552;2023-02-08T00:35:49;0.80;90.30
42965;DHT22;28604;51.204;22.552;2023-02-08T00:38:15;0.80;90.30
42965;DHT22;28604;51.204;22.552;2023-02-08T00:40:41;0.80;90.30
42965;DHT22;28604;51.204;22.552;2023-02-08T00:43:07;0.80;90.30
42965;DHT22;28604;51.204;22.552;2023-02-08T00:45:34;0.80;90.30
42965;DHT22;28604;51.204;22.552;2023-02-08T00:47:59;0.80;90.50
42965;DHT22;28604;51.204;22.552;2023-02-08T00:50:26;0.70;90.40
42965;DHT22;28604;51.204;22.552;2023-02-08T00:52:51;0.80;90.40
42965;DHT22;28604;51.204;22.552;2023-02-08T00:55:17;0.70;90.30
42965;DHT22;28604;51.204;22.552;2023-02-08T00:57:43;0.70;90.30
42965;DHT22;28604;51.204;22.552;2023-02-08T01:00:10;0.70;90.40
42965;DHT22;28604;51.204;22.552;2023-02-08T01:02:37;0.70;90.30
42965;DHT22;28604;51.204;22.552;2023-02-08T01:05:04;0.70;90.40
42965;DHT22;28604;51.204;22.552;2023-02-08T01:07:29;0.70;90.40
42965;DHT22;28604;51.204;22.552;2023-02-08T01:09:56;0.70;90.40
42965;DHT22;28604;51.204;22.552;2023-02-08T01:12:21;0.70;90.40
42965;DHT22;28604;51.204;22.552;2023-02-08T01:14:47;0.70;90.40
42965;DHT22;28604;51.204;22.552;2023-02-08T01:17:13;0.70;90.40
42965;DHT22;28604;51.204;22.552;2023-02-08T01:19:39;0.70;90.40
42965;DHT22;28604;51.204;22.552;2023-02-08T01:22:05;0.70;90.40
42965;DHT22;28604;51.204;22.552;2023-02-08T01:24:31;0.70;90.50
42965;DHT22;28604;51.204;22.552;2023-02-08T01:26:57;0.70;90.50
42965;DHT22;28604;51.204;22.552;2023-02-08T01:29:23;0.70;90.40
42965;DHT22;28604;51.204;22.552;2023-02-08T01:31:50;0.70;90.70
42965;DHT22;28604;51.204;22.552;2023-02-08T01:34:16;0.60;90.80
42965;DHT22;28604;51.204;22.552;2023-02-08T01:36:42;0.70;90.70
42965;DHT22;28604;51.204;22.552;2023-02-08T01:39:09;0.70;90.70
42965;DHT22;28604;51.204;22.552;2023-02-08T01:41:42;0.70;90.50
42965;DHT22;28604;51.204;22.552;2023-02-08T01:46:44;0.70;90.50
42965;DHT22;28604;51.204;22.552;2023-02-08T01:49:27;0.70;90.40
42965;DHT22;28604;51.204;22.552;2023-02-08T01:52:01;0.70;90.40
42965;DHT22;28604;51.204;22.552;2023-02-08T01:54:35;0.70;90.30
42965;DHT22;28604;51.204;22.552;2023-02-08T01:57:03;0.70;90.30
42965;DHT22;28604;51.204;22.552;2023-02-08T01:59:40;0.70;90.30
42965;DHT22;28604;51.204;22.552;2023-02-08T02:02:10;0.70;90.20
42965;DHT22;28604;51.204;22.552;2023-02-08T02:04:38;0.70;90.20
42965;DHT22;28604;51.204;22.552;2023-02-08T02:07:04;0.70;90.20
42965;DHT22;28604;51.204;22.552;2023-02-08T02:12:20;0.70;90.20
42965;DHT22;28604;51.204;22.552;2023-02-08T02:14:46;0.70;90.20
42965;DHT22;28604;51.204;22.552;2023-02-08T02:17:14;0.70;90.20
42965;DHT22;28604;51.204;22.552;2023-02-08T02:19:58;0.60;90.20
42965;DHT22;28604;51.204;22.552;2023-02-08T02:36:44;0.60;90.10
42965;DHT22;28604;51.204;22.552;2023-02-08T02:39:43;0.60;90.10
42965;DHT22;28604;51.204;22.552;2023-02-08T02:42:21;0.60;90.10
42965;DHT22;28604;51.204;22.552;2023-02-08T02:50:43;0.60;90.10
42965;DHT22;28604;51.204;22.552;2023-02-08T02:53:31;0.60;90.10
42965;DHT22;28604;51.204;22.552;2023-02-08T02:56:03;0.60;90.20
42965;DHT22;28604;51.204;22.552;2023-02-08T02:58:32;0.60;90.20
42965;DHT22;28604;51.204;22.552;2023-02-08T03:00:59;0.60;90.10
42965;DHT22;28604;51.204;22.552;2023-02-08T03:03:27;0.60;90.10
42965;DHT22;28604;51.204;22.552;2023-02-08T03:05:56;0.50;90.30
42965;DHT22;28604;51.204;22.552;2023-02-08T03:08:54;0.50;90.20
42965;DHT22;28604;51.204;22.552;2023-02-08T03:11:27;0.60;90.20
42965;DHT22;28604;51.204;22.552;2023-02-08T03:14:28;0.60;90.30
42965;DHT22;28604;51.204;22.552;2023-02-08T03:17:01;0.50;90.20
42965;DHT22;28604;51.204;22.552;2023-02-08T03:19:35;0.60;90.20
42965;DHT22;28604;51.204;22.552;2023-02-08T03:22:28;0.50;90.20
42965;DHT22;28604;51.204;22.552;2023-02-08T03:24:58;0.50;90.10
42965;DHT22;28604;51.204;22.552;2023-02-08T03:27:33;0.50;90.10
42965;DHT22;28604;51.204;22.552;2023-02-08T03:32:51;0.50;90.10
42965;DHT22;28604;51.204;22.552;2023-02-08T03:35:22;0.50;90.10
42965;DHT22;28604;51.204;22.552;2023-02-08T03:37:58;0.50;90.20
42965;DHT22;28604;51.204;22.552;2023-02-08T03:40:30;0.50;90.20
42965;DHT22;28604;51.204;22.552;2023-02-08T03:43:00;0.50;90.10
42965;DHT22;28604;51.204;22.552;2023-02-08T03:46:20;0.50;90.00
42965;DHT22;28604;51.204;22.552;2023-02-08T03:48:51;0.50;90.20
42965;DHT22;28604;51.204;22.552;2023-02-08T03:51:20;0.50;90.10
42965;DHT22;28604;51.204;22.552;2023-02-08T03:53:49;0.50;90.20
42965;DHT22;28604;51.204;22.552;2023-02-08T03:56:39;0.50;90.20
42965;DHT22;28604;51.204;22.552;2023-02-08T03:59:12;0.50;90.20
42965;DHT22;28604;51.204;22.552;2023-02-08T04:02:09;0.50;90.20
42965;DHT22;28604;51.204;22.552;2023-02-08T04:04:41;0.50;90.20
42965;DHT22;28604;51.204;22.552;2023-02-08T04:07:08;0.50;90.20
42965;DHT22;28604;51.204;22.552;2023-02-08T04:09:34;0.50;90.20
42965;DHT22;28604;51.204;22.552;2023-02-08T04:12:00;0.50;90.20
42965;DHT22;28604;51.204;22.552;2023-02-08T04:14:26;0.50;90.60
42965;DHT22;28604;51.204;22.552;2023-02-08T04:16:52;0.50;90.40
42965;DHT22;28604;51.204;22.552;2023-02-08T04:19:18;0.50;90.30
42965;DHT22;28604;51.204;22.552;2023-02-08T04:21:44;0.50;90.30
42965;DHT22;28604;51.204;22.552;2023-02-08T04:24:10;0.50;90.50
42965;DHT22;28604;51.204;22.552;2023-02-08T04:26:36;0.50;90.60
42965;DHT22;28604;51.204;22.552;2023-02-08T04:29:02;0.50;90.70
42965;DHT22;28604;51.204;22.552;2023-02-08T04:31:28;0.40;90.90
42965;DHT22;28604;51.204;22.552;2023-02-08T04:33:54;0.40;90.70
42965;DHT22;28604;51.204;22.552;2023-02-08T04:36:20;0.50;90.60
42965;DHT22;28604;51.204;22.552;2023-02-08T04:38:46;0.50;90.60
42965;DHT22;28604;51.204;22.552;2023-02-08T04:41:12;0.40;90.80
42965;DHT22;28604;51.204;22.552;2023-02-08T04:43:38;0.50;90.70
42965;DHT22;28604;51.204;22.552;2023-02-08T04:46:04;0.40;90.90
42965;DHT22;28604;51.204;22.552;2023-02-08T04:48:30;0.40;91.20
42965;DHT22;28604;51.204;22.552;2023-02-08T04:50:57;0.30;91.10
42965;DHT22;28604;51.204;22.552;2023-02-08T04:53:23;0.20;91.20
42965;DHT22;28604;51.204;22.552;2023-02-08T04:55:50;0.30;91.00
42965;DHT22;28604;51.204;22.552;2023-02-08T04:58:16;0.20;91.30
42965;DHT22;28604;51.204;22.552;2023-02-08T05:00:42;0.30;91.10
42965;DHT22;28604;51.204;22.552;2023-02-08T05:03:08;0.30;91.10
42965;DHT22;28604;51.204;22.552;2023-02-08T05:05:34;0.20;91.20
42965;DHT22;28604;51.204;22.552;2023-02-08T05:08:00;0.10;91.40
42965;DHT22;28604;51.204;22.552;2023-02-08T05:10:27;0.00;91.60
42965;DHT22;28604;51.204;22.552;2023-02-08T05:12:53;0.00;91.60
42965;DHT22;28604;51.204;22.552;2023-02-08T05:15:19;-0.10;91.50
42965;DHT22;28604;51.204;22.552;2023-02-08T05:17:45;-0.20;91.80
42965;DHT22;28604;51.204;22.552;2023-02-08T05:20:13;-0.20;92.00
42965;DHT22;28604;51.204;22.552;2023-02-08T05:22:39;-0.20;91.80
42965;DHT22;28604;51.204;22.552;2023-02-08T05:25:05;-0.20;91.80
42965;DHT22;28604;51.204;22.552;2023-02-08T05:27:33;-0.30;91.90
42965;DHT22;28604;51.204;22.552;2023-02-08T05:29:59;-0.20;91.90
42965;DHT22;28604;51.204;22.552;2023-02-08T05:32:26;-0.20;91.80
42965;DHT22;28604;51.204;22.552;2023-02-08T05:34:52;-0.20;91.80
42965;DHT22;28604;51.204;22.552;2023-02-08T05:37:18;-0.10;91.60
42965;DHT22;28604;51.204;22.552;2023-02-08T05:39:44;-0.20;91.50
42965;DHT22;28604;51.204;22.552;2023-02-08T05:42:10;-0.10;91.40
42965;DHT22;28604;51.204;22.552;2023-02-08T05:44:36;0.00;91.40
42965;DHT22;28604;51.204;22.552;2023-02-08T05:47:02;-0.10;91.40
42965;DHT22;28604;51.204;22.552;2023-02-08T05:49:29;-0.10;91.10
42965;DHT22;28604;51.204;22.552;2023-02-08T05:51:54;-0.20;90.70
42965;DHT22;28604;51.204;22.552;2023-02-08T05:54:21;-0.10;90.50
42965;DHT22;28604;51.204;22.552;2023-02-08T05:56:46;-0.20;90.60
42965;DHT22;28604;51.204;22.552;2023-02-08T05:59:12;-0.20;90.50
42965;DHT22;28604;51.204;22.552;2023-02-08T06:01:38;-0.20;90.30
42965;DHT22;28604;51.204;22.552;2023-02-08T06:04:05;-0.30;90.20
42965;DHT22;28604;51.204;22.552;2023-02-08T06:06:30;-0.30;90.10
42965;DHT22;28604;51.204;22.552;2023-02-08T06:08:56;-0.30;90.20
42965;DHT22;28604;51.204;22.552;2023-02-08T06:11:22;-0.50;89.60
42965;DHT22;28604;51.204;22.552;2023-02-08T06:13:48;-0.50;89.60
42965;DHT22;28604;51.204;22.552;2023-02-08T06:16:14;-0.60;90.00
42965;DHT22;28604;51.204;22.552;2023-02-08T06:18:41;-0.60;89.30
42965;DHT22;28604;51.204;22.552;2023-02-08T06:21:07;-0.80;89.50
42965;DHT22;28604;51.204;22.552;2023-02-08T06:23:33;-0.80;89.30
42965;DHT22;28604;51.204;22.552;2023-02-08T06:25:59;-1.00;88.90
42965;DHT22;28604;51.204;22.552;2023-02-08T06:28:25;-0.90;89.50
42965;DHT22;28604;51.204;22.552;2023-02-08T06:30:51;-0.90;89.70
42965;DHT22;28604;51.204;22.552;2023-02-08T06:33:17;-0.80;90.10
42965;DHT22;28604;51.204;22.552;2023-02-08T06:35:50;-0.90;90.20
42965;DHT22;28604;51.204;22.552;2023-02-08T06:38:18;-0.80;89.90
42965;DHT22;28604;51.204;22.552;2023-02-08T06:40:48;-0.80;89.20
42965;DHT22;28604;51.204;22.552;2023-02-08T06:43:15;-0.80;89.10
42965;DHT22;28604;51.204;22.552;2023-02-08T06:45:44;-0.90;88.40
42965;DHT22;28604;51.204;22.552;2023-02-08T06:48:12;-1.00;88.80
42965;DHT22;28604;51.204;22.552;2023-02-08T06:50:38;-1.00;88.50
42965;DHT22;28604;51.204;22.552;2023-02-08T06:53:04;-1.10;88.50
42965;DHT22;28604;51.204;22.552;2023-02-08T06:55:30;-1.10;89.20
42965;DHT22;28604;51.204;22.552;2023-02-08T06:57:56;-1.10;90.00
42965;DHT22;28604;51.204;22.552;2023-02-08T07:00:22;-1.00;90.20
42965;DHT22;28604;51.204;22.552;2023-02-08T07:02:48;-0.90;90.40
42965;DHT22;28604;51.204;22.552;2023-02-08T07:05:16;-0.70;89.40
42965;DHT22;28604;51.204;22.552;2023-02-08T07:07:42;-0.70;89.30
42965;DHT22;28604;51.204;22.552;2023-02-08T07:10:11;-0.50;89.40
42965;DHT22;28604;51.204;22.552;2023-02-08T07:12:39;-0.40;89.20
42965;DHT22;28604;51.204;22.552;2023-02-08T07:15:05;-0.20;90.10
42965;DHT22;28604;51.204;22.552;2023-02-08T07:17:34;0.00;89.80
42965;DHT22;28604;51.204;22.552;2023-02-08T07:20:00;0.10;89.70
42965;DHT22;28604;51.204;22.552;2023-02-08T07:22:26;0.30;90.10
42965;DHT22;28604;51.204;22.552;2023-02-08T07:24:54;0.70;88.50
42965;DHT22;28604;51.204;22.552;2023-02-08T07:27:28;1.20;89.40
42965;DHT22;28604;51.204;22.552;2023-02-08T07:29:55;1.20;86.90
42965;DHT22;28604;51.204;22.552;2023-02-08T07:32:21;1.20;88.10
42965;DHT22;28604;51.204;22.552;2023-02-08T07:34:47;1.20;87.90
42965;DHT22;28604;51.204;22.552;2023-02-08T07:37:13;1.50;88.90
42965;DHT22;28604;51.204;22.552;2023-02-08T07:39:39;1.80;88.40
42965;DHT22;28604;51.204;22.552;2023-02-08T07:49:43;2.80;86.00
42965;DHT22;28604;51.204;22.552;2023-02-08T07:52:11;3.10;84.30
42965;DHT22;28604;51.204;22.552;2023-02-08T07:54:37;2.80;83.50
42965;DHT22;28604;51.204;22.552;2023-02-08T07:57:03;2.60;83.30
42965;DHT22;28604;51.204;22.552;2023-02-08T07:59:29;2.50;83.80
42965;DHT22;28604;51.204;22.552;2023-02-08T08:01:55;2.50;84.10
42965;DHT22;28604;51.204;22.552;2023-02-08T08:04:24;2.50;85.00
42965;DHT22;28604;51.204;22.552;2023-02-08T08:06:50;2.50;83.80
42965;DHT22;28604;51.204;22.552;2023-02-08T08:09:18;2.50;85.40
42965;DHT22;28604;51.204;22.552;2023-02-08T08:11:45;2.40;84.60
42965;DHT22;28604;51.204;22.552;2023-02-08T08:14:11;2.50;85.10
42965;DHT22;28604;51.204;22.552;2023-02-08T08:16:37;2.40;84.60
42965;DHT22;28604;51.204;22.552;2023-02-08T08:19:02;2.60;84.90
42965;DHT22;28604;51.204;22.552;2023-02-08T08:21:29;2.70;84.60
42965;DHT22;28604;51.204;22.552;2023-02-08T08:23:55;2.70;84.30
42965;DHT22;28604;51.204;22.552;2023-02-08T08:26:21;2.80;83.70
42965;DHT22;28604;51.204;22.552;2023-02-08T08:28:49;3.10;85.30
42965;DHT22;28604;51.204;22.552;2023-02-08T08:31:17;3.40;83.90
42965;DHT22;28604;51.204;22.552;2023-02-08T08:33:44;3.60;83.80
42965;DHT22;28604;51.204;22.552;2023-02-08T08:36:10;4.10;83.80
42965;DHT22;28604;51.204;22.552;2023-02-08T08:38:36;4.60;82.40
42965;DHT22;28604;51.204;22.552;2023-02-08T08:41:16;5.00;82.50
42965;DHT22;28604;51.204;22.552;2023-02-08T08:43:42;5.60;81.00
42965;DHT22;28604;51.204;22.552;2023-02-08T08:46:09;6.00;80.80
42965;DHT22;28604;51.204;22.552;2023-02-08T08:48:36;6.50;80.20
42965;DHT22;28604;51.204;22.552;2023-02-08T08:51:03;6.80;78.20
42965;DHT22;28604;51.204;22.552;2023-02-08T08:53:29;6.90;76.60
42965;DHT22;28604;51.204;22.552;2023-02-08T08:55:55;7.20;77.40
42965;DHT22;28604;51.204;22.552;2023-02-08T08:58:21;7.40;76.50
42965;DHT22;28604;51.204;22.552;2023-02-08T09:00:47;7.50;75.50
42965;DHT22;28604;51.204;22.552;2023-02-08T09:03:12;7.50;74.10
42965;DHT22;28604;51.204;22.552;2023-02-08T09:05:38;7.40;72.70
42965;DHT22;28604;51.204;22.552;2023-02-08T09:08:04;7.70;75.00
42965;DHT22;28604;51.204;22.552;2023-02-08T09:10:31;7.80;73.60
42965;DHT22;28604;51.204;22.552;2023-02-08T09:12:57;8.10;73.20
42965;DHT22;28604;51.204;22.552;2023-02-08T09:15:24;8.50;73.90
42965;DHT22;28604;51.204;22.552;2023-02-08T09:17:49;8.70;72.90
42965;DHT22;28604;51.204;22.552;2023-02-08T09:20:18;8.80;68.70
42965;DHT22;28604;51.204;22.552;2023-02-08T09:22:44;8.60;72.20
42965;DHT22;28604;51.204;22.552;2023-02-08T09:25:10;8.70;70.70
42965;DHT22;28604;51.204;22.552;2023-02-08T09:27:36;8.60;69.80
42965;DHT22;28604;51.204;22.552;2023-02-08T09:30:04;8.70;70.70
42965;DHT22;28604;51.204;22.552;2023-02-08T09:32:32;8.90;72.30
42965;DHT22;28604;51.204;22.552;2023-02-08T09:34:59;9.10;68.70
42965;DHT22;28604;51.204;22.552;2023-02-08T09:37:27;9.30;71.40
42965;DHT22;28604;51.204;22.552;2023-02-08T09:39:53;9.40;67.10
42965;DHT22;28604;51.204;22.552;2023-02-08T09:42:38;9.60;69.20
42965;DHT22;28604;51.204;22.552;2023-02-08T09:45:19;9.70;71.50
42965;DHT22;28604;51.204;22.552;2023-02-08T09:53:33;9.90;66.40
42965;DHT22;28604;51.204;22.552;2023-02-08T09:56:03;10.10;67.40
42965;DHT22;28604;51.204;22.552;2023-02-08T09:58:37;10.20;69.00
42965;DHT22;28604;51.204;22.552;2023-02-08T10:01:24;10.20;66.50
42965;DHT22;28604;51.204;22.552;2023-02-08T10:04:05;10.40;68.50
42965;DHT22;28604;51.204;22.552;2023-02-08T10:06:33;10.50;65.30
42965;DHT22;28604;51.204;22.552;2023-02-08T10:09:03;10.50;67.10
42965;DHT22;28604;51.204;22.552;2023-02-08T10:16:59;10.60;68.30
42965;DHT22;28604;51.204;22.552;2023-02-08T10:25:32;9.60;61.90
42965;DHT22;28604;51.204;22.552;2023-02-08T10:36:20;9.60;68.90
42965;DHT22;28604;51.204;22.552;2023-02-08T10:38:50;9.90;70.70
42965;DHT22;28604;51.204;22.552;2023-02-08T10:41:23;10.00;67.70
42965;DHT22;28604;51.204;22.552;2023-02-08T10:44:03;9.90;73.70
42965;DHT22;28604;51.204;22.552;2023-02-08T10:49:16;10.20;72.00
42965;DHT22;28604;51.204;22.552;2023-02-08T10:51:45;10.30;71.10
42965;DHT22;28604;51.204;22.552;2023-02-08T10:54:13;10.50;69.60
42965;DHT22;28604;51.204;22.552;2023-02-08T11:00:06;10.70;69.30
42965;DHT22;28604;51.204;22.552;2023-02-08T11:02:42;10.50;71.30
42965;DHT22;28604;51.204;22.552;2023-02-08T11:07:43;10.50;70.20
42965;DHT22;28604;51.204;22.552;2023-02-08T11:12:59;10.70;66.60
42965;DHT22;28604;51.204;22.552;2023-02-08T11:15:36;10.70;66.20
42965;DHT22;28604;51.204;22.552;2023-02-08T11:18:03;10.50;64.00
42965;DHT22;28604;51.204;22.552;2023-02-08T11:20:40;10.60;65.40
42965;DHT22;28604;51.204;22.552;2023-02-08T11:25:44;10.90;70.40
42965;DHT22;28604;51.204;22.552;2023-02-08T11:28:28;10.70;67.40
42965;DHT22;28604;51.204;22.552;2023-02-08T11:30:57;10.40;65.40
42965;DHT22;28604;51.204;22.552;2023-02-08T11:33:24;10.00;65.60
42965;DHT22;28604;51.204;22.552;2023-02-08T12:16:29;8.80;68.00
42965;DHT22;28604;51.204;22.552;2023-02-08T12:19:37;8.80;67.10
42965;DHT22;28604;51.204;22.552;2023-02-08T12:22:26;8.80;65.30
42965;DHT22;28604;51.204;22.552;2023-02-08T12:28:07;8.90;68.00
42965;DHT22;28604;51.204;22.552;2023-02-08T12:33:20;8.60;66.40
42965;DHT22;28604;51.204;22.552;2023-02-08T12:36:14;8.70;65.40
42965;DHT22;28604;51.204;22.552;2023-02-08T12:38:53;8.50;69.00
42965;DHT22;28604;51.204;22.552;2023-02-08T12:45:01;8.20;67.50
42965;DHT22;28604;51.204;22.552;2023-02-08T12:52:51;8.20;65.50
42965;DHT22;28604;51.204;22.552;2023-02-08T12:55:45;8.00;65.20
42965;DHT22;28604;51.204;22.552;2023-02-08T12:58:28;7.80;64.00
42965;DHT22;28604;51.204;22.552;2023-02-08T13:01:19;7.90;68.50
42965;DHT22;28604;51.204;22.552;2023-02-08T13:04:14;7.70;61.90
42965;DHT22;28604;51.204;22.552;2023-02-08T13:06:51;7.50;67.40
42965;DHT22;28604;51.204;22.552;2023-02-08T13:14:49;6.80;63.70
42965;DHT22;28604;51.204;22.552;2023-02-08T13:17:20;6.50;67.30
42965;DHT22;28604;51.204;22.552;2023-02-08T13:20:01;6.50;68.00
42965;DHT22;28604;51.204;22.552;2023-02-08T13:22:34;6.60;69.40
42965;DHT22;28604;51.204;22.552;2023-02-08T13:25:03;6.60;67.20
42965;DHT22;28604;51.204;22.552;2023-02-08T13:27:30;6.80;70.00
42965;DHT22;28604;51.204;22.552;2023-02-08T13:29:56;6.90;71.00
42965;DHT22;28604;51.204;22.552;2023-02-08T13:32:27;6.90;69.90
42965;DHT22;28604;51.204;22.552;2023-02-08T13:35:10;6.90;70.10
42965;DHT22;28604;51.204;22.552;2023-02-08T13:37:38;7.00;68.70
42965;DHT22;28604;51.204;22.552;2023-02-08T13:40:23;6.90;65.70
42965;DHT22;28604;51.204;22.552;2023-02-08T13:43:02;6.70;64.90
42965;DHT22;28604;51.204;22.552;2023-02-08T13:45:37;6.80;68.00
42965;DHT22;28604;51.204;22.552;2023-02-08T13:48:10;6.30;67.60
42965;DHT22;28604;51.204;22.552;2023-02-08T13:50:44;6.20;67.40
42965;DHT22;28604;51.204;22.552;2023-02-08T13:53:11;6.40;70.10
42965;DHT22;28604;51.204;22.552;2023-02-08T13:56:08;6.50;67.80
42965;DHT22;28604;51.204;22.552;2023-02-08T14:01:22;6.40;68.60
42965;DHT22;28604;51.204;22.552;2023-02-08T14:06:36;6.40;69.10
42965;DHT22;28604;51.204;22.552;2023-02-08T14:25:46;5.80;69.20
42965;DHT22;28604;51.204;22.552;2023-02-08T14:28:24;5.80;70.40
42965;DHT22;28604;51.204;22.552;2023-02-08T14:30:52;5.70;66.60
42965;DHT22;28604;51.204;22.552;2023-02-08T14:33:52;5.20;65.20
42965;DHT22;28604;51.204;22.552;2023-02-08T14:36:27;5.40;69.00
42965;DHT22;28604;51.204;22.552;2023-02-08T14:49:51;5.40;70.40
42965;DHT22;28604;51.204;22.552;2023-02-08T14:52:22;5.40;70.90
42965;DHT22;28604;51.204;22.552;2023-02-08T14:54:55;5.40;69.40
42965;DHT22;28604;51.204;22.552;2023-02-08T14:57:34;5.30;70.20
42965;DHT22;28604;51.204;22.552;2023-02-08T15:00:05;5.30;70.30
42965;DHT22;28604;51.204;22.552;2023-02-08T15:02:32;5.30;70.90
42965;DHT22;28604;51.204;22.552;2023-02-08T15:05:01;5.30;71.00
42965;DHT22;28604;51.204;22.552;2023-02-08T15:07:41;5.20;70.70
42965;DHT22;28604;51.204;22.552;2023-02-08T15:10:15;5.00;69.50
42965;DHT22;28604;51.204;22.552;2023-02-08T15:12:46;5.00;71.20
42965;DHT22;28604;51.204;22.552;2023-02-08T15:15:32;5.00;71.40
42965;DHT22;28604;51.204;22.552;2023-02-08T15:18:00;4.90;70.00
42965;DHT22;28604;51.204;22.552;2023-02-08T15:20:33;4.80;71.00
42965;DHT22;28604;51.204;22.552;2023-02-08T15:25:32;4.50;68.60
42965;DHT22;28604;51.204;22.552;2023-02-08T15:28:03;3.90;67.10
42965;DHT22;28604;51.204;22.552;2023-02-08T15:30:40;3.60;66.90
42965;DHT22;28604;51.204;22.552;2023-02-08T15:33:09;3.50;69.00
42965;DHT22;28604;51.204;22.552;2023-02-08T15:35:39;3.50;70.00
42965;DHT22;28604;51.204;22.552;2023-02-08T15:38:18;3.40;69.50
42965;DHT22;28604;51.204;22.552;2023-02-08T15:41:05;3.40;69.60
42965;DHT22;28604;51.204;22.552;2023-02-08T15:43:32;3.30;69.40
42965;DHT22;28604;51.204;22.552;2023-02-08T15:46:01;3.00;68.00
42965;DHT22;28604;51.204;22.552;2023-02-08T15:48:27;3.00;70.50
42965;DHT22;28604;51.204;22.552;2023-02-08T15:50:55;2.70;69.40
42965;DHT22;28604;51.204;22.552;2023-02-08T15:53:22;2.40;70.00
42965;DHT22;28604;51.204;22.552;2023-02-08T15:55:55;2.40;70.50
42965;DHT22;28604;51.204;22.552;2023-02-08T16:00:57;2.30;70.50
42965;DHT22;28604;51.204;22.552;2023-02-08T16:03:25;2.10;69.90
42965;DHT22;28604;51.204;22.552;2023-02-08T16:06:04;1.70;70.90
42965;DHT22;28604;51.204;22.552;2023-02-08T16:08:33;1.50;71.20
42965;DHT22;28604;51.204;22.552;2023-02-08T16:11:16;1.40;71.80
42965;DHT22;28604;51.204;22.552;2023-02-08T16:13:46;1.40;71.10
42965;DHT22;28604;51.204;22.552;2023-02-08T16:16:23;1.40;71.10
42965;DHT22;28604;51.204;22.552;2023-02-08T16:21:44;1.00;71.80
42965;DHT22;28604;51.204;22.552;2023-02-08T16:26:43;0.80;72.10
42965;DHT22;28604;51.204;22.552;2023-02-08T16:29:36;0.50;73.90
42965;DHT22;28604;51.204;22.552;2023-02-08T16:32:27;0.50;73.20
42965;DHT22;28604;51.204;22.552;2023-02-08T16:34:51;0.10;73.90
42965;DHT22;28604;51.204;22.552;2023-02-08T16:37:36;-0.10;74.30
42965;DHT22;28604;51.204;22.552;2023-02-08T16:42:49;-0.40;75.40
42965;DHT22;28604;51.204;22.552;2023-02-08T16:45:18;-0.50;74.80
42965;DHT22;28604;51.204;22.552;2023-02-08T16:47:50;-0.50;75.50
42965;DHT22;28604;51.204;22.552;2023-02-08T16:50:22;-0.50;74.50
42965;DHT22;28604;51.204;22.552;2023-02-08T16:52:54;-0.40;74.10
42965;DHT22;28604;51.204;22.552;2023-02-08T16:55:26;-0.60;75.20
42965;DHT22;28604;51.204;22.552;2023-02-08T16:57:57;-0.80;75.60
42965;DHT22;28604;51.204;22.552;2023-02-08T17:00:28;-1.00;76.30
42965;DHT22;28604;51.204;22.552;2023-02-08T17:02:55;-1.10;76.10
42965;DHT22;28604;51.204;22.552;2023-02-08T17:05:25;-1.20;76.70
42965;DHT22;28604;51.204;22.552;2023-02-08T17:07:51;-1.30;76.70
42965;DHT22;28604;51.204;22.552;2023-02-08T17:10:29;-1.30;75.80
42965;DHT22;28604;51.204;22.552;2023-02-08T17:12:56;-1.10;74.60
42965;DHT22;28604;51.204;22.552;2023-02-08T17:15:23;-1.10;75.10
42965;DHT22;28604;51.204;22.552;2023-02-08T17:17:50;-1.10;74.30
42965;DHT22;28604;51.204;22.552;2023-02-08T17:20:23;-1.10;73.30
42965;DHT22;28604;51.204;22.552;2023-02-08T17:22:51;-1.20;73.70
42965;DHT22;28604;51.204;22.552;2023-02-08T17:25:18;-1.30;74.70
42965;DHT22;28604;51.204;22.552;2023-02-08T17:27:55;-1.30;73.90
42965;DHT22;28604;51.204;22.552;2023-02-08T17:32:53;-1.40;75.10
42965;DHT22;28604;51.204;22.552;2023-02-08T17:35:22;-1.40;74.10
42965;DHT22;28604;51.204;22.552;2023-02-08T17:37:49;-1.50;73.80
42965;DHT22;28604;51.204;22.552;2023-02-08T17:40:20;-1.60;73.50
42965;DHT22;28604;51.204;22.552;2023-02-08T17:42:46;-1.70;77.20
42965;DHT22;28604;51.204;22.552;2023-02-08T17:45:12;-1.70;76.20
42965;DHT22;28604;51.204;22.552;2023-02-08T17:47:38;-1.70;75.40
42965;DHT22;28604;51.204;22.552;2023-02-08T17:50:07;-1.80;74.60
42965;DHT22;28604;51.204;22.552;2023-02-08T17:52:35;-1.80;73.80
42965;DHT22;28604;51.204;22.552;2023-02-08T17:55:01;-1.90;73.50
42965;DHT22;28604;51.204;22.552;2023-02-08T17:57:33;-2.10;77.00
42965;DHT22;28604;51.204;22.552;2023-02-08T17:59:59;-2.10;76.00
42965;DHT22;28604;51.204;22.552;2023-02-08T18:02:25;-2.10;74.70
42965;DHT22;28604;51.204;22.552;2023-02-08T18:04:51;-2.00;73.90
42965;DHT22;28604;51.204;22.552;2023-02-08T18:07:17;-2.10;75.50
42965;DHT22;28604;51.204;22.552;2023-02-08T18:09:44;-2.20;75.50
42965;DHT22;28604;51.204;22.552;2023-02-08T18:12:10;-2.30;73.90
42965;DHT22;28604;51.204;22.552;2023-02-08T18:14:36;-2.30;78.30
42965;DHT22;28604;51.204;22.552;2023-02-08T18:17:05;-2.50;77.90
42965;DHT22;28604;51.204;22.552;2023-02-08T18:19:31;-2.70;78.50
42965;DHT22;28604;51.204;22.552;2023-02-08T18:21:58;-2.90;79.40
42965;DHT22;28604;51.204;22.552;2023-02-08T18:24:31;-2.80;77.40
42965;DHT22;28604;51.204;22.552;2023-02-08T18:27:01;-2.90;78.30
42965;DHT22;28604;51.204;22.552;2023-02-08T18:29:29;-3.10;79.90
42965;DHT22;28604;51.204;22.552;2023-02-08T18:31:56;-3.20;79.70
42965;DHT22;28604;51.204;22.552;2023-02-08T18:34:21;-3.20;81.30
42965;DHT22;28604;51.204;22.552;2023-02-08T18:36:47;-3.30;78.60
42965;DHT22;28604;51.204;22.552;2023-02-08T18:39:14;-3.30;78.20
42965;DHT22;28604;51.204;22.552;2023-02-08T18:41:40;-3.40;78.40
42965;DHT22;28604;51.204;22.552;2023-02-08T18:44:08;-3.40;79.50
42965;DHT22;28604;51.204;22.552;2023-02-08T18:46:34;-3.50;78.30
42965;DHT22;28604;51.204;22.552;2023-02-08T18:49:00;-3.60;78.30